Terminal Aerodrome Forecast
Issued by NWS Jackson, KY

Home | Current Version | Previous Version | Text Only | Print | Product List | Glossary On
Versions: 1 2 3 4 5 6 7 8 9 10 11 12 13
000
FTUS43 KJKL 280500
TAFLOZ
TAF
KLOZ 280535Z 2806/2906 VRB03KT P6SM FEW030 BKN050
     FM280800 28005KT P6SM FEW080
     FM281600 32010G18KT P6SM BKN045
     FM290000 33005KT P6SM BKN040=

USA.gov is the U.S. government's official web portal to all federal, state and local government web resources and services.